sensor_id;sensor_type;location;lat;lon;timestamp;pressure;altitude;pressure_sealevel;temperature;humidity
70314;BME280;57725;47.526;18.986;2023-01-26T00:02:17;100581.19;;;5.11;96.73
70314;BME280;57725;47.526;18.986;2023-01-26T00:04:45;100569.97;;;5.10;96.62
70314;BME280;57725;47.526;18.986;2023-01-26T00:07:11;100575.16;;;5.10;96.75
70314;BME280;57725;47.526;18.986;2023-01-26T00:09:38;100572.56;;;5.12;96.42
70314;BME280;57725;47.526;18.986;2023-01-26T00:12:04;100571.69;;;5.12;96.77
70314;BME280;57725;47.526;18.986;2023-01-26T00:14:37;100574.28;;;5.12;97.28
70314;BME280;57725;47.526;18.986;2023-01-26T00:17:18;100577.75;;;5.12;96.64
70314;BME280;57725;47.526;18.986;2023-01-26T00:19:52;100568.25;;;5.11;96.58
70314;BME280;57725;47.526;18.986;2023-01-26T00:22:18;100563.91;;;5.12;96.99
70314;BME280;57725;47.526;18.986;2023-01-26T00:24:44;100560.47;;;5.09;96.94
70314;BME280;57725;47.526;18.986;2023-01-26T00:27:11;100559.59;;;5.12;97.23
70314;BME280;57725;47.526;18.986;2023-01-26T00:29:37;100562.19;;;5.12;96.89
70314;BME280;57725;47.526;18.986;2023-01-26T00:32:02;100561.31;;;5.12;96.75
70314;BME280;57725;47.526;18.986;2023-01-26T00:34:28;100556.16;;;5.12;96.92
70314;BME280;57725;47.526;18.986;2023-01-26T00:36:55;100551.81;;;5.10;96.89
70314;BME280;57725;47.526;18.986;2023-01-26T00:39:21;100561.31;;;5.12;96.84
70314;BME280;57725;47.526;18.986;2023-01-26T00:41:51;100558.72;;;5.12;96.32
70314;BME280;57725;47.526;18.986;2023-01-26T00:44:36;100558.72;;;5.12;97.27
70314;BME280;57725;47.526;18.986;2023-01-26T00:47:09;100553.56;;;5.12;96.83
70314;BME280;57725;47.526;18.986;2023-01-26T00:49:40;100550.09;;;5.11;96.57
70314;BME280;57725;47.526;18.986;2023-01-26T00:52:08;100547.50;;;5.11;96.46
70314;BME280;57725;47.526;18.986;2023-01-26T00:54:34;100553.56;;;5.12;97.13
70314;BME280;57725;47.526;18.986;2023-01-26T00:56:59;100542.34;;;5.09;96.74
70314;BME280;57725;47.526;18.986;2023-01-26T00:59:31;100542.31;;;5.11;96.70
70314;BME280;57725;47.526;18.986;2023-01-26T01:01:58;100539.72;;;5.11;96.46
70314;BME280;57725;47.526;18.986;2023-01-26T01:04:24;100541.47;;;5.10;96.62
70314;BME280;57725;47.526;18.986;2023-01-26T01:06:50;100534.53;;;5.11;96.11
70314;BME280;57725;47.526;18.986;2023-01-26T01:09:18;100533.69;;;5.09;96.61
70314;BME280;57725;47.526;18.986;2023-01-26T01:11:43;100533.69;;;5.09;96.89
70314;BME280;57725;47.526;18.986;2023-01-26T01:14:11;100531.09;;;5.10;97.15
70314;BME280;57725;47.526;18.986;2023-01-26T01:16:37;100538.00;;;5.12;96.74
70314;BME280;57725;47.526;18.986;2023-01-26T01:19:02;100537.13;;;5.11;96.65
70314;BME280;57725;47.526;18.986;2023-01-26T01:21:30;100531.97;;;5.11;96.60
70314;BME280;57725;47.526;18.986;2023-01-26T01:23:57;100538.00;;;5.12;96.53
70314;BME280;57725;47.526;18.986;2023-01-26T01:26:25;100526.78;;;5.11;96.77
70314;BME280;57725;47.526;18.986;2023-01-26T01:28:54;100519.88;;;5.10;96.37
70314;BME280;57725;47.526;18.986;2023-01-26T01:31:20;100523.31;;;5.10;96.88
70314;BME280;57725;47.526;18.986;2023-01-26T01:33:48;100524.19;;;5.09;96.71
70314;BME280;57725;47.526;18.986;2023-01-26T01:36:16;100520.78;;;5.07;96.04
70314;BME280;57725;47.526;18.986;2023-01-26T01:38:43;100524.19;;;5.11;96.57
70314;BME280;57725;47.526;18.986;2023-01-26T01:41:09;100512.09;;;5.10;96.52
70314;BME280;57725;47.526;18.986;2023-01-26T01:43:35;100518.16;;;5.09;96.75
70314;BME280;57725;47.526;18.986;2023-01-26T01:46:13;100513.81;;;5.11;96.29
70314;BME280;57725;47.526;18.986;2023-01-26T01:48:51;100511.22;;;5.09;96.56
70314;BME280;57725;47.526;18.986;2023-01-26T01:51:24;100507.78;;;5.10;96.56
70314;BME280;57725;47.526;18.986;2023-01-26T01:54:01;100505.19;;;5.10;96.93
70314;BME280;57725;47.526;18.986;2023-01-26T01:56:30;100502.63;;;5.07;96.88
70314;BME280;57725;47.526;18.986;2023-01-26T01:59:00;100502.59;;;5.10;97.31
70314;BME280;57725;47.526;18.986;2023-01-26T02:01:27;100499.13;;;5.10;96.60
70314;BME280;57725;47.526;18.986;2023-01-26T02:03:59;100495.69;;;5.08;96.50
70314;BME280;57725;47.526;18.986;2023-01-26T02:08:57;100490.47;;;5.11;96.93
70314;BME280;57725;47.526;18.986;2023-01-26T02:11:37;100481.00;;;5.08;96.60
70314;BME280;57725;47.526;18.986;2023-01-26T02:14:09;100478.41;;;5.10;96.72
70314;BME280;57725;47.526;18.986;2023-01-26T02:16:38;100485.31;;;5.11;96.66
70314;BME280;57725;47.526;18.986;2023-01-26T02:21:59;100474.94;;;5.09;96.56
70314;BME280;57725;47.526;18.986;2023-01-26T02:24:33;100476.66;;;5.10;96.75
70314;BME280;57725;47.526;18.986;2023-01-26T02:27:03;100470.63;;;5.10;96.71
70314;BME280;57725;47.526;18.986;2023-01-26T02:29:29;100467.16;;;5.11;96.85
70314;BME280;57725;47.526;18.986;2023-01-26T02:31:54;100461.13;;;5.10;96.59
70314;BME280;57725;47.526;18.986;2023-01-26T02:34:25;100461.13;;;5.10;96.12
70314;BME280;57725;47.526;18.986;2023-01-26T02:36:57;100452.47;;;5.10;96.95
70314;BME280;57725;47.526;18.986;2023-01-26T02:42:06;100444.72;;;5.10;96.54
70314;BME280;57725;47.526;18.986;2023-01-26T02:44:53;100446.44;;;5.09;96.52
70314;BME280;57725;47.526;18.986;2023-01-26T02:47:18;100440.41;;;5.09;97.00
70314;BME280;57725;47.526;18.986;2023-01-26T02:49:47;100440.41;;;5.09;96.74
70314;BME280;57725;47.526;18.986;2023-01-26T02:52:25;100438.66;;;5.09;96.44
70314;BME280;57725;47.526;18.986;2023-01-26T02:54:52;100429.16;;;5.08;96.50
70314;BME280;57725;47.526;18.986;2023-01-26T02:57:36;100428.28;;;5.09;96.35
70314;BME280;57725;47.526;18.986;2023-01-26T03:00:08;100422.25;;;5.09;96.86
70314;BME280;57725;47.526;18.986;2023-01-26T03:02:34;100422.25;;;5.09;96.41
70314;BME280;57725;47.526;18.986;2023-01-26T03:05:02;100423.13;;;5.09;96.71
70314;BME280;57725;47.526;18.986;2023-01-26T03:07:31;100408.47;;;5.07;96.57
70314;BME280;57725;47.526;18.986;2023-01-26T03:09:59;100422.25;;;5.09;96.72
70314;BME280;57725;47.526;18.986;2023-01-26T03:12:34;100419.66;;;5.09;96.31
70314;BME280;57725;47.526;18.986;2023-01-26T03:15:02;100411.88;;;5.10;96.34
70314;BME280;57725;47.526;18.986;2023-01-26T03:17:46;100410.16;;;5.08;96.44
70314;BME280;57725;47.526;18.986;2023-01-26T03:20:12;100412.75;;;5.09;96.64
70314;BME280;57725;47.526;18.986;2023-01-26T03:22:56;100397.25;;;5.06;96.55
70314;BME280;57725;47.526;18.986;2023-01-26T03:25:46;100407.56;;;5.09;97.22
70314;BME280;57725;47.526;18.986;2023-01-26T03:28:33;100404.97;;;5.09;96.00
70314;BME280;57725;47.526;18.986;2023-01-26T03:31:05;100407.56;;;5.09;96.51
70314;BME280;57725;47.526;18.986;2023-01-26T03:33:36;100400.66;;;5.08;97.28
70314;BME280;57725;47.526;18.986;2023-01-26T03:36:01;100402.38;;;5.09;96.45
70314;BME280;57725;47.526;18.986;2023-01-26T03:38:29;100392.88;;;5.10;96.29
70314;BME280;57725;47.526;18.986;2023-01-26T03:40:57;100383.44;;;5.07;96.80
70314;BME280;57725;47.526;18.986;2023-01-26T03:43:43;100382.53;;;5.08;95.96
70314;BME280;57725;47.526;18.986;2023-01-26T03:46:27;100378.25;;;5.07;96.28
70314;BME280;57725;47.526;18.986;2023-01-26T03:49:13;100377.38;;;5.07;96.39
70314;BME280;57725;47.526;18.986;2023-01-26T03:51:57;100373.09;;;5.04;96.95
70314;BME280;57725;47.526;18.986;2023-01-26T03:54:43;100371.28;;;5.08;96.39
70314;BME280;57725;47.526;18.986;2023-01-26T03:57:28;100367.91;;;5.04;96.54
70314;BME280;57725;47.526;18.986;2023-01-26T03:59:56;100371.34;;;5.06;96.70
70314;BME280;57725;47.526;18.986;2023-01-26T04:02:24;100373.06;;;5.07;96.20
70314;BME280;57725;47.526;18.986;2023-01-26T04:05:08;100370.47;;;5.07;96.85
70314;BME280;57725;47.526;18.986;2023-01-26T04:08:01;100366.13;;;5.08;96.74
70314;BME280;57725;47.526;18.986;2023-01-26T04:10:45;100360.13;;;5.06;96.37
70314;BME280;57725;47.526;18.986;2023-01-26T04:13:12;100359.25;;;5.07;96.85
70314;BME280;57725;47.526;18.986;2023-01-26T04:15:59;100365.28;;;5.07;96.42
70314;BME280;57725;47.526;18.986;2023-01-26T04:18:45;100365.28;;;5.07;96.31
70314;BME280;57725;47.526;18.986;2023-01-26T04:21:30;100363.56;;;5.06;95.88
70314;BME280;57725;47.526;18.986;2023-01-26T04:23:58;100360.94;;;5.08;96.74
70314;BME280;57725;47.526;18.986;2023-01-26T04:26:41;100365.28;;;5.07;96.84
70314;BME280;57725;47.526;18.986;2023-01-26T04:29:13;100352.31;;;5.07;96.64
70314;BME280;57725;47.526;18.986;2023-01-26T04:31:40;100348.88;;;5.07;96.71
70314;BME280;57725;47.526;18.986;2023-01-26T04:34:11;100344.56;;;5.07;96.68
70314;BME280;57725;47.526;18.986;2023-01-26T04:36:38;100350.56;;;5.08;96.80
70314;BME280;57725;47.526;18.986;2023-01-26T04:39:03;100343.72;;;5.04;96.36
70314;BME280;57725;47.526;18.986;2023-01-26T04:41:29;100351.47;;;5.07;97.01
70314;BME280;57725;47.526;18.986;2023-01-26T04:43:55;100347.16;;;5.07;96.97
70314;BME280;57725;47.526;18.986;2023-01-26T04:46:21;100346.28;;;5.07;96.25
70314;BME280;57725;47.526;18.986;2023-01-26T04:48:46;100345.44;;;5.06;95.98
70314;BME280;57725;47.526;18.986;2023-01-26T04:51:14;100347.97;;;5.08;96.53
70314;BME280;57725;47.526;18.986;2023-01-26T04:53:44;100341.13;;;5.04;96.62
70314;BME280;57725;47.526;18.986;2023-01-26T04:56:24;100343.69;;;5.07;96.72
70314;BME280;57725;47.526;18.986;2023-01-26T04:58:51;100343.69;;;5.07;97.22
70314;BME280;57725;47.526;18.986;2023-01-26T05:01:16;100349.72;;;5.07;96.74
70314;BME280;57725;47.526;18.986;2023-01-26T05:03:42;100337.66;;;5.06;96.61
70314;BME280;57725;47.526;18.986;2023-01-26T05:06:07;100346.28;;;5.07;95.88
70314;BME280;57725;47.526;18.986;2023-01-26T05:08:33;100345.44;;;5.06;96.43
70314;BME280;57725;47.526;18.986;2023-01-26T05:10:58;100340.25;;;5.05;96.72
70314;BME280;57725;47.526;18.986;2023-01-26T05:13:30;100347.16;;;5.06;96.78
70314;BME280;57725;47.526;18.986;2023-01-26T05:15:59;100347.16;;;5.06;96.69
70314;BME280;57725;47.526;18.986;2023-01-26T05:18:27;100348.88;;;5.07;96.16
70314;BME280;57725;47.526;18.986;2023-01-26T05:20:53;100342.84;;;5.06;96.78
70314;BME280;57725;47.526;18.986;2023-01-26T05:23:19;100341.09;;;5.07;96.36
70314;BME280;57725;47.526;18.986;2023-01-26T05:25:44;100344.56;;;5.06;96.75
70314;BME280;57725;47.526;18.986;2023-01-26T05:28:10;100333.34;;;5.04;96.74
70314;BME280;57725;47.526;18.986;2023-01-26T05:30:35;100341.09;;;5.07;96.47
70314;BME280;57725;47.526;18.986;2023-01-26T05:33:07;100342.84;;;5.06;96.77
70314;BME280;57725;47.526;18.986;2023-01-26T05:35:33;100337.69;;;5.03;96.65
70314;BME280;57725;47.526;18.986;2023-01-26T05:37:59;100346.28;;;5.07;96.71
70314;BME280;57725;47.526;18.986;2023-01-26T05:40:27;100347.16;;;5.06;96.27
70314;BME280;57725;47.526;18.986;2023-01-26T05:42:55;100342.03;;;5.01;95.97
70314;BME280;57725;47.526;18.986;2023-01-26T05:45:25;100351.47;;;5.05;96.42
70314;BME280;57725;47.526;18.986;2023-01-26T05:47:50;100350.59;;;5.06;96.78
70314;BME280;57725;47.526;18.986;2023-01-26T05:50:18;100351.47;;;5.07;95.97
70314;BME280;57725;47.526;18.986;2023-01-26T05:52:46;100344.63;;;5.01;96.69
70314;BME280;57725;47.526;18.986;2023-01-26T05:55:14;100335.09;;;5.02;96.90
70314;BME280;57725;47.526;18.986;2023-01-26T05:57:42;100348.91;;;5.05;96.40
70314;BME280;57725;47.526;18.986;2023-01-26T06:00:09;100352.34;;;5.06;96.60
70314;BME280;57725;47.526;18.986;2023-01-26T06:02:37;100349.75;;;5.06;96.77
70314;BME280;57725;47.526;18.986;2023-01-26T06:05:05;100354.06;;;5.05;96.76
70314;BME280;57725;47.526;18.986;2023-01-26T06:07:31;100355.81;;;5.05;96.79
70314;BME280;57725;47.526;18.986;2023-01-26T06:09:59;100348.06;;;5.03;96.51
70314;BME280;57725;47.526;18.986;2023-01-26T06:12:24;100351.50;;;5.04;96.32
70314;BME280;57725;47.526;18.986;2023-01-26T06:14:56;100347.19;;;5.03;96.14
70314;BME280;57725;47.526;18.986;2023-01-26T06:17:21;100351.50;;;5.04;96.12
70314;BME280;57725;47.526;18.986;2023-01-26T06:19:47;100347.19;;;5.04;95.92
70314;BME280;57725;47.526;18.986;2023-01-26T06:22:13;100342.00;;;5.04;96.39
70314;BME280;57725;47.526;18.986;2023-01-26T06:24:40;100348.06;;;5.02;95.86
70314;BME280;57725;47.526;18.986;2023-01-26T06:27:11;100349.75;;;5.04;96.40
70314;BME280;57725;47.526;18.986;2023-01-26T06:29:37;100343.72;;;5.04;96.93
70314;BME280;57725;47.526;18.986;2023-01-26T06:32:02;100348.03;;;5.05;96.83
70314;BME280;57725;47.526;18.986;2023-01-26T06:34:28;100344.59;;;5.04;96.01
70314;BME280;57725;47.526;18.986;2023-01-26T06:36:59;100333.41;;;4.98;96.59
70314;BME280;57725;47.526;18.986;2023-01-26T06:39:26;100350.63;;;5.03;97.07
70314;BME280;57725;47.526;18.986;2023-01-26T06:41:52;100340.28;;;5.02;96.54
70314;BME280;57725;47.526;18.986;2023-01-26T06:44:19;100341.13;;;5.04;96.49
70314;BME280;57725;47.526;18.986;2023-01-26T06:46:45;100337.69;;;5.03;96.61
70314;BME280;57725;47.526;18.986;2023-01-26T06:49:15;100348.91;;;5.04;96.50
70314;BME280;57725;47.526;18.986;2023-01-26T06:54:10;100342.00;;;5.03;96.76
70314;BME280;57725;47.526;18.986;2023-01-26T06:56:38;100335.09;;;5.02;96.15
70314;BME280;57725;47.526;18.986;2023-01-26T06:59:04;100339.41;;;5.04;96.80
70314;BME280;57725;47.526;18.986;2023-01-26T07:01:35;100331.66;;;5.03;96.84
70314;BME280;57725;47.526;18.986;2023-01-26T07:04:04;100332.50;;;5.03;96.41
70314;BME280;57725;47.526;18.986;2023-01-26T07:06:29;100332.50;;;5.03;96.38
70314;BME280;57725;47.526;18.986;2023-01-26T07:08:55;100334.22;;;5.03;96.74
70314;BME280;57725;47.526;18.986;2023-01-26T07:11:25;100328.22;;;5.01;96.40
70314;BME280;57725;47.526;18.986;2023-01-26T07:13:51;100329.06;;;5.01;96.82
70314;BME280;57725;47.526;18.986;2023-01-26T07:16:18;100327.31;;;5.03;96.62
70314;BME280;57725;47.526;18.986;2023-01-26T07:18:46;100326.47;;;5.03;96.92
70314;BME280;57725;47.526;18.986;2023-01-26T07:21:19;100329.06;;;5.01;96.38
70314;BME280;57725;47.526;18.986;2023-01-26T07:23:45;100334.22;;;5.03;96.85
70314;BME280;57725;47.526;18.986;2023-01-26T07:26:14;100332.50;;;5.03;96.82
70314;BME280;57725;47.526;18.986;2023-01-26T07:28:39;100329.06;;;5.03;96.66
70314;BME280;57725;47.526;18.986;2023-01-26T07:31:12;100327.31;;;5.03;96.50
70314;BME280;57725;47.526;18.986;2023-01-26T07:33:37;100326.47;;;5.03;96.24
70314;BME280;57725;47.526;18.986;2023-01-26T07:36:03;100315.22;;;5.02;96.67
70314;BME280;57725;47.526;18.986;2023-01-26T07:38:31;100317.84;;;4.99;96.58
70314;BME280;57725;47.526;18.986;2023-01-26T07:40:57;100313.50;;;5.03;96.38
70314;BME280;57725;47.526;18.986;2023-01-26T07:43:25;100316.09;;;5.01;96.67
70314;BME280;57725;47.526;18.986;2023-01-26T07:45:53;100317.81;;;5.02;96.22
70314;BME280;57725;47.526;18.986;2023-01-26T07:48:20;100311.78;;;5.02;96.81
70314;BME280;57725;47.526;18.986;2023-01-26T07:50:46;100311.81;;;5.00;96.87
70314;BME280;57725;47.526;18.986;2023-01-26T07:53:15;100318.69;;;5.01;96.75
70314;BME280;57725;47.526;18.986;2023-01-26T07:55:45;100318.72;;;5.00;96.12
70314;BME280;57725;47.526;18.986;2023-01-26T07:58:13;100315.25;;;5.01;96.75
70314;BME280;57725;47.526;18.986;2023-01-26T08:00:41;100316.97;;;5.02;96.47
70314;BME280;57725;47.526;18.986;2023-01-26T08:03:07;100317.84;;;5.01;96.62
70314;BME280;57725;47.526;18.986;2023-01-26T08:05:32;100309.22;;;4.99;96.75
70314;BME280;57725;47.526;18.986;2023-01-26T08:08:00;100316.09;;;5.01;96.19
70314;BME280;57725;47.526;18.986;2023-01-26T08:10:27;100310.97;;;4.98;96.42
70314;BME280;57725;47.526;18.986;2023-01-26T08:12:57;100316.09;;;5.01;96.47
70314;BME280;57725;47.526;18.986;2023-01-26T08:15:22;100315.28;;;4.98;96.20
70314;BME280;57725;47.526;18.986;2023-01-26T08:17:48;100312.66;;;5.01;96.38
70314;BME280;57725;47.526;18.986;2023-01-26T08:20:15;100313.50;;;5.01;95.86
70314;BME280;57725;47.526;18.986;2023-01-26T08:22:43;100317.84;;;5.01;96.62
70314;BME280;57725;47.526;18.986;2023-01-26T08:25:08;100304.97;;;4.95;96.32
70314;BME280;57725;47.526;18.986;2023-01-26T08:27:36;100316.09;;;5.01;95.97
70314;BME280;57725;47.526;18.986;2023-01-26T08:30:02;100312.66;;;5.01;96.83
70314;BME280;57725;47.526;18.986;2023-01-26T08:32:28;100310.94;;;5.01;96.59
70314;BME280;57725;47.526;18.986;2023-01-26T08:34:54;100306.63;;;5.00;96.81
70314;BME280;57725;47.526;18.986;2023-01-26T08:37:19;100304.91;;;4.99;96.65
70314;BME280;57725;47.526;18.986;2023-01-26T08:39:45;100316.97;;;5.00;96.38
70314;BME280;57725;47.526;18.986;2023-01-26T08:42:12;100313.56;;;4.98;96.88
70314;BME280;57725;47.526;18.986;2023-01-26T08:44:38;100313.53;;;5.00;96.33
70314;BME280;57725;47.526;18.986;2023-01-26T08:47:05;100317.84;;;5.01;96.19
70314;BME280;57725;47.526;18.986;2023-01-26T08:49:31;100316.97;;;5.00;96.78
70314;BME280;57725;47.526;18.986;2023-01-26T08:52:01;100304.03;;;4.99;96.64
70314;BME280;57725;47.526;18.986;2023-01-26T08:54:26;100308.34;;;5.00;97.13
70314;BME280;57725;47.526;18.986;2023-01-26T08:56:52;100304.03;;;5.00;96.17
70314;BME280;57725;47.526;18.986;2023-01-26T08:59:19;100312.69;;;4.99;96.59
70314;BME280;57725;47.526;18.986;2023-01-26T09:01:44;100304.03;;;5.00;96.00
70314;BME280;57725;47.526;18.986;2023-01-26T09:04:10;100316.97;;;5.00;96.59
70314;BME280;57725;47.526;18.986;2023-01-26T09:06:38;100310.09;;;4.98;96.20
70314;BME280;57725;47.526;18.986;2023-01-26T09:09:03;100317.84;;;5.01;96.75
70314;BME280;57725;47.526;18.986;2023-01-26T09:11:36;100312.66;;;5.01;97.12
70314;BME280;57725;47.526;18.986;2023-01-26T09:14:04;100314.38;;;5.00;96.29
70314;BME280;57725;47.526;18.986;2023-01-26T09:16:31;100313.53;;;5.00;96.51
70314;BME280;57725;47.526;18.986;2023-01-26T09:19:02;100316.13;;;5.00;96.96
70314;BME280;57725;47.526;18.986;2023-01-26T09:21:29;100315.25;;;5.01;97.01
70314;BME280;57725;47.526;18.986;2023-01-26T09:23:58;100311.81;;;5.00;96.23
70314;BME280;57725;47.526;18.986;2023-01-26T09:26:24;100310.94;;;5.00;95.97
70314;BME280;57725;47.526;18.986;2023-01-26T09:28:51;100316.13;;;4.98;97.15
70314;BME280;57725;47.526;18.986;2023-01-26T09:31:22;100311.84;;;4.97;96.86
70314;BME280;57725;47.526;18.986;2023-01-26T09:33:48;100299.72;;;4.99;96.89
70314;BME280;57725;47.526;18.986;2023-01-26T09:36:14;100307.47;;;5.01;96.55
70314;BME280;57725;47.526;18.986;2023-01-26T09:38:40;100310.94;;;5.00;96.61
70314;BME280;57725;47.526;18.986;2023-01-26T09:44:10;100304.91;;;4.98;96.37
70314;BME280;57725;47.526;18.986;2023-01-26T09:49:35;100295.41;;;5.00;96.54
70314;BME280;57725;47.526;18.986;2023-01-26T09:52:17;100296.28;;;4.99;97.05
70314;BME280;57725;47.526;18.986;2023-01-26T09:54:51;100285.91;;;4.99;96.12
70314;BME280;57725;47.526;18.986;2023-01-26T09:57:22;100278.16;;;4.97;96.74
70314;BME280;57725;47.526;18.986;2023-01-26T10:05:03;100277.28;;;4.97;96.19
70314;BME280;57725;47.526;18.986;2023-01-26T10:07:35;100272.94;;;5.00;96.64
70314;BME280;57725;47.526;18.986;2023-01-26T10:10:03;100263.47;;;4.98;96.73
70314;BME280;57725;47.526;18.986;2023-01-26T10:12:35;100262.66;;;4.96;96.57
70314;BME280;57725;47.526;18.986;2023-01-26T10:15:03;100263.44;;;4.99;96.73
70314;BME280;57725;47.526;18.986;2023-01-26T10:17:39;100259.13;;;5.00;96.79
70314;BME280;57725;47.526;18.986;2023-01-26T10:20:21;100257.41;;;4.99;95.99
70314;BME280;57725;47.526;18.986;2023-01-26T10:22:57;100242.72;;;4.98;96.56
70314;BME280;57725;47.526;18.986;2023-01-26T10:25:43;100243.56;;;5.00;96.65
70314;BME280;57725;47.526;18.986;2023-01-26T10:28:22;100240.13;;;4.99;96.63
70314;BME280;57725;47.526;18.986;2023-01-26T10:30:52;100234.09;;;4.99;96.87
70314;BME280;57725;47.526;18.986;2023-01-26T10:33:26;100229.75;;;4.99;96.70
70314;BME280;57725;47.526;18.986;2023-01-26T10:35:57;100221.16;;;4.97;96.45
70314;BME280;57725;47.526;18.986;2023-01-26T10:40:54;100217.66;;;5.00;96.34
70314;BME280;57725;47.526;18.986;2023-01-26T10:43:19;100219.38;;;4.99;96.17
70314;BME280;57725;47.526;18.986;2023-01-26T10:45:47;100221.97;;;5.01;96.72
70314;BME280;57725;47.526;18.986;2023-01-26T10:48:23;100226.28;;;5.00;97.12
70314;BME280;57725;47.526;18.986;2023-01-26T10:50:51;100225.44;;;5.00;96.84
70314;BME280;57725;47.526;18.986;2023-01-26T10:53:26;100226.28;;;5.00;96.37
70314;BME280;57725;47.526;18.986;2023-01-26T10:56:04;100218.50;;;5.00;97.10
70314;BME280;57725;47.526;18.986;2023-01-26T11:01:06;100211.59;;;5.01;96.61
70314;BME280;57725;47.526;18.986;2023-01-26T11:03:39;100202.13;;;5.00;96.71
70314;BME280;57725;47.526;18.986;2023-01-26T11:08:36;100196.94;;;5.00;97.00
70314;BME280;57725;47.526;18.986;2023-01-26T11:11:06;100198.66;;;5.01;96.44
70314;BME280;57725;47.526;18.986;2023-01-26T11:13:36;100196.06;;;4.99;96.53
70314;BME280;57725;47.526;18.986;2023-01-26T11:16:16;100192.59;;;5.00;96.60
70314;BME280;57725;47.526;18.986;2023-01-26T11:21:19;100183.13;;;4.99;96.69
70314;BME280;57725;47.526;18.986;2023-01-26T11:27:18;100175.34;;;4.99;96.62
70314;BME280;57725;47.526;18.986;2023-01-26T11:32:41;100172.72;;;5.01;96.77
70314;BME280;57725;47.526;18.986;2023-01-26T11:38:28;100172.72;;;5.01;96.26
70314;BME280;57725;47.526;18.986;2023-01-26T11:46:46;100158.06;;;5.00;96.56
70314;BME280;57725;47.526;18.986;2023-01-26T11:52:35;100139.03;;;5.01;96.52
70314;BME280;57725;47.526;18.986;2023-01-26T12:00:39;100140.78;;;5.00;96.43
70314;BME280;57725;47.526;18.986;2023-01-26T12:03:22;100126.09;;;5.01;96.61
70314;BME280;57725;47.526;18.986;2023-01-26T12:05:59;100124.34;;;5.01;96.37
70314;BME280;57725;47.526;18.986;2023-01-26T12:14:00;100106.22;;;5.01;96.68
70314;BME280;57725;47.526;18.986;2023-01-26T12:22:02;100101.91;;;5.00;96.37
70314;BME280;57725;47.526;18.986;2023-01-26T12:24:37;100108.81;;;5.01;97.11
70314;BME280;57725;47.526;18.986;2023-01-26T12:27:34;100102.75;;;5.02;96.55
70314;BME280;57725;47.526;18.986;2023-01-26T12:33:15;100102.75;;;5.02;96.21
70314;BME280;57725;47.526;18.986;2023-01-26T12:35:47;100100.16;;;5.02;96.63
70314;BME280;57725;47.526;18.986;2023-01-26T12:38:20;100098.44;;;5.01;95.82
70314;BME280;57725;47.526;18.986;2023-01-26T12:43:58;100094.13;;;5.02;96.38
70314;BME280;57725;47.526;18.986;2023-01-26T12:46:30;100086.34;;;5.02;95.85
70314;BME280;57725;47.526;18.986;2023-01-26T12:51:42;100081.16;;;5.02;96.45
70314;BME280;57725;47.526;18.986;2023-01-26T12:54:39;100092.38;;;5.02;96.47
70314;BME280;57725;47.526;18.986;2023-01-26T12:57:23;100086.38;;;5.00;96.80
70314;BME280;57725;47.526;18.986;2023-01-26T13:00:06;100082.88;;;5.03;96.63
70314;BME280;57725;47.526;18.986;2023-01-26T13:02:44;100083.72;;;5.03;96.55
70314;BME280;57725;47.526;18.986;2023-01-26T13:05:26;100077.69;;;5.03;96.51
70314;BME280;57725;47.526;18.986;2023-01-26T13:07:54;100077.69;;;5.03;96.47
70314;BME280;57725;47.526;18.986;2023-01-26T13:10:23;100074.25;;;5.02;96.17
70314;BME280;57725;47.526;18.986;2023-01-26T13:15:20;100074.22;;;5.04;96.54
70314;BME280;57725;47.526;18.986;2023-01-26T13:26:19;100069.03;;;5.04;96.35
70314;BME280;57725;47.526;18.986;2023-01-26T13:28:46;100062.16;;;5.01;96.10
70314;BME280;57725;47.526;18.986;2023-01-26T13:31:12;100065.63;;;5.02;96.62
70314;BME280;57725;47.526;18.986;2023-01-26T13:33:52;100065.63;;;5.02;96.48
70314;BME280;57725;47.526;18.986;2023-01-26T13:36:19;100069.03;;;5.04;96.39
70314;BME280;57725;47.526;18.986;2023-01-26T13:39:02;100067.31;;;5.04;95.74
70314;BME280;57725;47.526;18.986;2023-01-26T13:41:29;100066.44;;;5.04;95.81
70314;BME280;57725;47.526;18.986;2023-01-26T13:44:09;100071.63;;;5.04;96.74
70314;BME280;57725;47.526;18.986;2023-01-26T13:46:42;100066.50;;;5.01;96.58
70314;BME280;57725;47.526;18.986;2023-01-26T13:49:38;100073.38;;;5.03;96.35
70314;BME280;57725;47.526;18.986;2023-01-26T13:52:24;100064.72;;;5.04;97.00
70314;BME280;57725;47.526;18.986;2023-01-26T13:54:52;100063.84;;;5.04;96.38
70314;BME280;57725;47.526;18.986;2023-01-26T13:57:27;100064.72;;;5.04;96.30
70314;BME280;57725;47.526;18.986;2023-01-26T13:59:59;100058.69;;;5.04;96.35
70314;BME280;57725;47.526;18.986;2023-01-26T14:02:28;100058.69;;;5.04;96.14
70314;BME280;57725;47.526;18.986;2023-01-26T14:05:01;100059.56;;;5.03;96.13
70314;BME280;57725;47.526;18.986;2023-01-26T14:07:31;100056.94;;;5.04;96.71
70314;BME280;57725;47.526;18.986;2023-01-26T14:09:59;100060.41;;;5.03;96.53
70314;BME280;57725;47.526;18.986;2023-01-26T14:12:44;100059.53;;;5.04;96.60
70314;BME280;57725;47.526;18.986;2023-01-26T14:15:24;100061.25;;;5.04;96.22
70314;BME280;57725;47.526;18.986;2023-01-26T14:18:03;100066.44;;;5.04;96.34
70314;BME280;57725;47.526;18.986;2023-01-26T14:25:35;100066.44;;;5.04;96.12
70314;BME280;57725;47.526;18.986;2023-01-26T14:28:01;100065.56;;;5.05;96.11
70314;BME280;57725;47.526;18.986;2023-01-26T14:30:33;100065.59;;;5.03;96.55
70314;BME280;57725;47.526;18.986;2023-01-26T14:33:11;100067.31;;;5.04;97.01
70314;BME280;57725;47.526;18.986;2023-01-26T14:35:37;100067.31;;;5.04;96.49
70314;BME280;57725;47.526;18.986;2023-01-26T14:38:04;100059.53;;;5.04;96.57
70314;BME280;57725;47.526;18.986;2023-01-26T14:40:47;100056.09;;;5.04;96.70